Latest Coastal Weather Observations for Green Cape

IDN60701

Issued at 9:42 am EDT Wednesday 4 March 2015 (issued every 10 minutes, with the page automatically refreshed every 10 minutes)

About coastal observations | Map of coastal stations | Coastal observations for NSW | Marine services | Other Formats
Station Details ID: 069137 Name: GREEN CAPE AWS Lat: -37.26 Lon: 150.05 Height: 19.4 m
Data from the previous 72 hours. | See also: Recent months at Green Cape
Date/Time
EDT
Temp

°C
Wind Pressure Rain
since 9am
mm
Weather Cloud Vis
km
Sea
Height
m
Swell
Dir
 
Speed
knots
Gust
knots
hPa Trend Height
m
Period
s
Dir
04/09:30am 17.9 W 10 12 1014.5 - 0.0 - - - - - - -
04/09:00am 17.6 W 9 10 1014.4 - 0.0 - - - - - - -
04/08:30am 17.3 W 8 10 1014.3 - 0.0 - - - - - - -
04/08:00am 17.0 WSW 9 10 1014.1 - 0.0 - - - - - - -
04/07:30am 16.7 W 8 9 1013.7 - 0.0 - - - - - - -
04/07:00am 16.3 W 9 9 1013.3 - 0.0 - - - - - - -
04/06:30am 16.2 W 9 10 1013.0 - 0.0 - - - - - - -
04/06:00am 16.2 W 8 9 1012.9 - 0.0 - - - - - - -
04/05:30am 16.2 W 7 8 1013.0 - 0.0 - - - - - - -
04/05:00am 16.2 W 6 7 1013.0 - 0.0 - - - - - - -
04/04:30am 16.0 W 7 7 1013.0 - 0.0 - - - - - - -
04/04:00am 16.2 W 6 7 1013.3 - 0.0 - - - - - - -
04/03:30am 16.4 W 6 7 1013.5 - 0.0 - - - - - - -
04/03:00am 16.4 W 6 6 1013.8 - 0.0 - - - - - - -
04/02:30am 16.3 W 5 6 1014.1 - 0.0 - - - - - - -
04/02:00am 16.8 W 6 7 1014.5 - 0.0 - - - - - - -
04/01:30am 16.8 W 6 7 1014.9 - 0.0 - - - - - - -
04/01:00am 17.1 W 5 5 1015.1 - 0.0 - - - - - - -
04/12:30am 17.3 WNW 6 7 1015.4 - 0.0 - - - - - - -
04/12:00am 17.3 W 6 7 1015.8 - 0.0 - - - - - - -
 
Date/Time
EDT
Temp

°C
Wind Pressure Rain
since 9am
mm
Weather Cloud Vis
km
Sea
Height
m
Swell
Dir
 
Speed
knots
Gust
knots
hPa Trend Height
m
Period
s
Dir
03/11:30pm 17.3 W 7 8 1016.0 - 0.0 - - - - - - -
03/11:00pm 17.7 W 6 7 1016.0 - 0.0 - - - - - - -
03/10:30pm 17.6 W 6 7 1016.0 - 0.0 - - - - - - -
03/10:00pm 17.9 W 8 9 1016.1 - 0.0 - - - - - - -
03/09:30pm 18.6 SW 7 7 1016.2 - 0.0 - - - - - - -
03/09:00pm 18.6 SW 6 8 1016.1 - 0.0 - - - - - - -
03/08:30pm 18.7 SW 8 9 1015.7 - 0.0 - - - - - - -
03/08:00pm 18.9 SSW 9 11 1015.4 - 0.0 - - - - - - -
03/07:30pm 19.1 S 10 13 1015.3 - 0.0 - - - - - - -
03/07:00pm 19.4 S 13 14 1015.1 - 0.0 - - - - - - -
03/06:30pm 19.9 S 15 17 1015.0 - 0.0 - - - - - - -
03/06:00pm 20.1 S 17 19 1014.8 - 0.0 - - - - - - -
03/05:30pm 20.2 S 19 21 1014.7 - 0.0 - - - - - - -
03/05:00pm 20.8 S 20 22 1014.5 - 0.0 - - - - - - -
03/04:30pm 20.9 S 20 24 1014.3 - 0.0 - - - - - - -
03/04:00pm 21.4 S 19 22 1014.4 - 0.0 - - - - - - -
03/03:30pm 22.1 S 19 22 1014.4 - 0.0 - - - - - - -
03/03:00pm 22.2 S 18 21 1014.7 - 0.0 - - - - - - -
03/02:30pm 22.6 S 18 20 1015.0 - 0.0 - - - - - - -
03/02:00pm 23.8 SSE 12 15 1015.5 - 0.0 - - - - - - -
03/01:30pm 22.5 SSW 8 9 1015.6 - 0.0 - - - - - - -
03/01:00pm 21.5 S 8 9 1015.7 - 0.0 - - - - - - -
03/12:30pm 21.1 SSW 7 8 1015.7 - 0.0 - - - - - - -
03/12:00pm 20.9 SW 7 9 1016.1 - 0.0 - - - - - - -
03/11:30am 20.9 SW 8 9 1016.4 - 0.0 - - - - - - -
03/11:00am 20.9 SW 10 11 1016.3 - 0.0 - - - - - - -
03/10:30am 20.8 SSW 10 12 1016.2 - 0.0 - - - - - - -
03/10:00am 20.2 WSW 6 9 1016.3 - 0.0 - - - - - - -
03/09:30am 19.9 WSW 6 7 1015.9 - 0.0 - - - - - - -
03/09:00am 19.5 W 6 6 1016.0 - 0.2 - - - - - - -
03/08:30am 18.9 W 6 7 1015.4 - 0.2 - - - - - - -
03/08:00am 18.5 W 8 9 1015.3 - 0.2 - - - - - - -
03/07:30am 18.3 W 7 8 1014.2 - 0.2 - - - - - - -
03/07:00am 18.2 W 10 11 1014.3 - 0.2 - - - - - - -
03/06:30am 18.5 W 8 9 1013.8 - 0.2 - - - - - - -
03/06:00am 18.4 W 4 4 1013.5 - 0.2 - - - - - - -
03/05:30am 18.5 W 3 4 1013.4 - 0.2 - - - - - - -
03/05:00am 18.6 NW 4 6 1013.4 - 0.2 - - - - - - -
03/04:30am 19.1 NNW 5 9 1013.4 - 0.2 - - - - - - -
03/04:00am 19.3 N 15 18 1013.0 - 0.2 - - - - - - -
03/03:30am 19.4 N 16 19 1012.8 - 0.2 - - - - - - -
03/03:00am 19.3 N 16 19 1013.2 - 0.2 - - - - - - -
03/02:30am 19.3 N 18 20 1013.1 - 0.2 - - - - - - -
03/02:00am 19.4 N 18 20 1013.9 - 0.2 - - - - - - -
03/01:30am 19.5 N 19 21 1014.2 - 0.2 - - - - - - -
03/01:00am 19.6 N 17 21 1014.7 - 0.2 - - - - - - -
03/12:30am 19.7 N 15 17 1015.5 - 0.2 - - - - - - -
03/12:00am 19.8 N 14 16 1015.8 - 0.2 - - - - - - -
 
Date/Time
EDT
Temp

°C
Wind Pressure Rain
since 9am
mm
Weather Cloud Vis
km
Sea
Height
m
Swell
Dir
 
Speed
knots
Gust
knots
hPa Trend Height
m
Period
s
Dir
02/11:30pm 19.9 N 14 17 1016.1 - 0.2 - - - - - - -
02/11:00pm 20.0 N 14 17 1016.2 - 0.2 - - - - - - -
02/10:30pm 20.3 N 15 19 1016.5 - 0.2 - - - - - - -
02/10:00pm 20.7 NNE 19 22 1016.0 - 0.2 - - - - - - -
02/09:30pm 20.7 NNE 18 21 1016.4 - 0.2 - - - - - - -
02/09:00pm 20.6 NNE 20 23 1016.2 - 0.2 - - - - - - -
02/08:30pm 20.6 NNE 20 24 1016.1 - 0.2 - - - - - - -
02/08:00pm 20.5 NNE 20 23 1015.8 - 0.2 - - - - - - -
02/07:30pm 20.6 NNE 21 23 1015.7 - 0.2 - - - - - - -
02/07:00pm 20.8 NNE 19 21 1015.4 - 0.2 - - - - - - -
02/06:30pm 21.2 NNE 17 20 1015.5 - 0.2 - - - - - - -
02/06:00pm 21.6 NNE 16 20 1016.0 - 0.2 - - - - - - -
02/05:30pm 21.9 NNE 14 16 1016.1 - 0.2 - - - - - - -
02/05:00pm 21.8 NNE 13 16 1016.7 - 0.2 - - - - - - -
02/04:30pm 23.2 NNE 12 14 1016.8 - 0.2 - - - - - - -
02/04:00pm 23.8 NNE 12 14 1017.0 - 0.2 - - - - - - -
02/03:30pm 23.6 NE 11 13 1017.3 - 0.2 - - - - - - -
02/03:00pm 24.1 NNE 5 9 1017.7 - 0.2 - - - - - - -
02/02:30pm 23.9 NNE 4 5 1018.2 - 0.2 - - - - - - -
02/02:00pm 23.6 NE 4 5 1018.3 - 0.2 - - - - - - -
02/01:30pm 23.6 NE 4 5 1018.6 - 0.2 - - - - - - -
02/01:00pm 23.1 NE 4 5 1018.8 - 0.2 - - - - - - -
02/12:30pm 22.6 ENE 4 5 1019.2 - 0.2 - - - - - - -
02/12:00pm 21.9 E 4 5 1019.6 - 0.0 - - - - - - -
02/11:30am 21.9 E 4 5 1019.7 - 0.0 - - - - - - -
02/11:00am 21.6 SE 2 3 1019.9 - 0.0 - - - - - - -
02/10:30am 20.6 S 3 4 1019.9 - 0.0 - - - - - - -
02/10:00am 18.3 W 5 5 1020.0 - 0.0 - - - - - - -
02/09:30am 17.6 W 6 7 1019.7 - 0.0 - - - - - - -
02/09:00am 16.7 W 10 12 1019.8 - 0.6 - - - - - - -
02/08:30am 16.3 W 12 13 1019.9 - 0.6 - - - - - - -
02/08:00am 15.4 WNW 11 13 1019.5 - 0.6 - - - - - - -
02/07:30am 15.5 WNW 12 15 1019.2 - 0.6 - - - - - - -
02/07:00am 15.6 WNW 12 14 1019.2 - 0.6 - - - - - - -
02/06:30am 15.8 W 11 13 1018.9 - 0.6 - - - - - - -
02/06:00am 15.3 WNW 9 11 1018.7 - 0.6 - - - - - - -
02/05:30am 14.9 W 14 16 1018.5 - 0.6 - - - - - - -
02/05:00am 14.9 W 15 17 1018.0 - 0.6 - - - - - - -
02/04:30am 14.9 W 17 19 1017.8 - 0.6 - - - - - - -
02/04:00am 14.8 W 16 19 1017.6 - 0.6 - - - - - - -
02/03:30am 14.8 W 16 18 1017.6 - 0.6 - - - - - - -
02/03:00am 14.9 WNW 13 16 1017.5 - 0.6 - - - - - - -
02/02:30am 15.0 WNW 12 16 1017.7 - 0.6 - - - - - - -
02/02:00am 15.3 W 14 16 1017.7 - 0.6 - - - - - - -
02/01:30am 15.1 W 12 15 1017.6 - 0.6 - - - - - - -
02/01:00am 15.7 W 13 15 1017.4 - 0.6 - - - - - - -
02/12:30am 15.7 W 13 15 1017.5 - 0.6 - - - - - - -
02/12:00am 16.0 W 15 17 1017.6 - 0.6 - - - - - - -
 
Date/Time
EDT
Temp

°C
Wind Pressure Rain
since 9am
mm
Weather Cloud Vis
km
Sea
Height
m
Swell
Dir
 
Speed
knots
Gust
knots
hPa Trend Height
m
Period
s
Dir
01/11:30pm 16.2 W 13 15 1017.6 - 0.6 - - - - - - -
01/11:00pm 16.6 WSW 13 15 1017.5 - 0.6 - - - - - - -
01/10:30pm 17.0 WSW 12 14 1017.5 - 0.6 - - - - - - -
01/10:00pm 17.1 WSW 15 18 1017.4 - 0.6 - - - - - - -
01/09:30pm 17.3 WSW 15 17 1016.9 - 0.6 - - - - - - -
01/09:00pm 17.4 WSW 14 18 1016.7 - 0.6 - - - - - - -
01/08:30pm 17.7 SW 16 19 1016.1 - 0.6 - - - - - - -
01/08:00pm 17.9 SW 18 23 1015.4 - 0.6 - - - - - - -
01/07:30pm 18.1 SW 23 28 1014.4 - 0.6 - - - - - - -
01/07:00pm 18.5 SSW 24 29 1013.4 - 0.6 - - - - - - -
01/06:30pm 18.9 SW 27 37 1013.1 - 0.6 - - - - - - -
01/06:22pm 19.0 SW 25 37 1012.6 - 0.6 - - - - - - -
01/06:00pm 18.9 SW 28 37 1012.0 - 0.6 - - - - - - -
01/05:30pm 19.1 SW 29 34 1011.5 - 0.6 - - - - - - -
01/05:00pm 19.6 SW 26 32 1011.5 - 0.6 - - - - - - -
01/04:30pm 19.9 SW 26 32 1011.0 - 0.6 - - - - - - -
01/04:00pm 20.1 SW 32 40 1010.4 - 0.6 - - - - - - -
01/03:55pm 20.1 SW 29 40 1010.1 - 0.6 - - - - - - -
01/03:49pm 20.1 SW 24 34 1010.3 - 0.6 - - - - - - -
01/03:30pm 20.0 SW 24 29 1010.4 - 0.6 - - - - - - -
01/03:08pm 19.7 SW 28 38 1010.3 - 0.6 - - - - - - -
01/03:00pm 19.4 SW 31 39 1010.1 - 0.6 - - - - - - -
01/02:50pm 19.9 SW 28 39 1009.7 - 0.6 - - - - - - -
01/02:30pm 19.4 WSW 26 31 1009.9 - 0.6 - - - - - - -
01/02:00pm 18.8 SW 24 29 1009.4 - 0.6 - - - - - - -
01/01:30pm 18.0 WSW 26 33 1009.4 - 0.6 - - - - - - -
01/01:00pm 17.9 SW 22 27 1009.6 - 0.6 - - - - - - -
01/12:30pm 18.3 SW 22 29 1009.4 - 0.6 - - - - - - -
01/12:00pm 17.8 SW 23 28 1009.2 - 0.6 - - - - - - -
01/11:30am 17.9 SSW 19 22 1008.7 - 0.6 - - - - - - -
01/11:00am 18.2 SW 19 23 1008.4 - 0.6 - - - - - - -
01/10:38am 18.5 SW 16 27 1007.7 - 0.6 - - - - - - -
01/10:30am 19.2 SW 12 15 1008.0 - 0.6 - - - - - - -
01/10:00am 19.2 SSW 13 15 1006.9 - 0.4 - - - - - - -

Other Formats:

Comma delimited format used in spreadsheet applications
http://www.bom.gov.au/fwo/IDN60701/IDN60701.94934.axf

JavaScript Object Notation format (JSON) in row-major order
http://www.bom.gov.au/fwo/IDN60701/IDN60701.94934.json